sensor_id;sensor_type;location;lat;lon;timestamp;temperature;humidity
39103;DHT22;24847;48.218;16.414;2022-08-21T00:04:12;18.50;99.90
39103;DHT22;24847;48.218;16.414;2022-08-21T00:09:16;18.50;99.90
39103;DHT22;24847;48.218;16.414;2022-08-21T00:14:18;18.60;99.90
39103;DHT22;24847;48.218;16.414;2022-08-21T00:19:20;18.40;99.90
39103;DHT22;24847;48.218;16.414;2022-08-21T00:24:27;18.40;99.90
39103;DHT22;24847;48.218;16.414;2022-08-21T00:29:29;18.50;99.90
39103;DHT22;24847;48.218;16.414;2022-08-21T00:34:31;18.40;99.90
39103;DHT22;24847;48.218;16.414;2022-08-21T00:39:35;18.50;99.90
39103;DHT22;24847;48.218;16.414;2022-08-21T00:44:37;18.60;99.90
39103;DHT22;24847;48.218;16.414;2022-08-21T00:49:40;18.50;99.90
39103;DHT22;24847;48.218;16.414;2022-08-21T00:54:44;18.30;99.90
39103;DHT22;24847;48.218;16.414;2022-08-21T00:59:49;18.40;99.90
39103;DHT22;24847;48.218;16.414;2022-08-21T01:04:53;18.70;99.90
39103;DHT22;24847;48.218;16.414;2022-08-21T01:09:56;18.50;99.90
39103;DHT22;24847;48.218;16.414;2022-08-21T01:15:02;18.40;99.90
39103;DHT22;24847;48.218;16.414;2022-08-21T01:20:08;18.30;99.90
39103;DHT22;24847;48.218;16.414;2022-08-21T01:25:19;18.60;99.90
39103;DHT22;24847;48.218;16.414;2022-08-21T01:30:24;18.80;99.90
39103;DHT22;24847;48.218;16.414;2022-08-21T01:35:27;18.60;99.90
39103;DHT22;24847;48.218;16.414;2022-08-21T01:40:31;18.60;99.90
39103;DHT22;24847;48.218;16.414;2022-08-21T01:45:33;18.50;99.90
39103;DHT22;24847;48.218;16.414;2022-08-21T01:50:36;18.60;99.90
39103;DHT22;24847;48.218;16.414;2022-08-21T01:55:40;18.40;99.90
39103;DHT22;24847;48.218;16.414;2022-08-21T02:00:42;18.60;99.90
39103;DHT22;24847;48.218;16.414;2022-08-21T02:05:45;18.70;99.90
39103;DHT22;24847;48.218;16.414;2022-08-21T02:10:49;18.40;99.90
39103;DHT22;24847;48.218;16.414;2022-08-21T02:15:51;18.30;99.90
39103;DHT22;24847;48.218;16.414;2022-08-21T02:20:54;18.20;99.90
39103;DHT22;24847;48.218;16.414;2022-08-21T02:25:59;18.50;99.90
39103;DHT22;24847;48.218;16.414;2022-08-21T02:31:02;18.20;99.90
39103;DHT22;24847;48.218;16.414;2022-08-21T02:36:06;18.30;99.90
39103;DHT22;24847;48.218;16.414;2022-08-21T02:41:14;18.50;99.90
39103;DHT22;24847;48.218;16.414;2022-08-21T02:46:19;18.30;99.90
39103;DHT22;24847;48.218;16.414;2022-08-21T02:51:22;18.30;99.90
39103;DHT22;24847;48.218;16.414;2022-08-21T02:56:27;18.40;99.90
39103;DHT22;24847;48.218;16.414;2022-08-21T03:01:29;18.20;99.90
39103;DHT22;24847;48.218;16.414;2022-08-21T03:06:32;18.40;99.90
39103;DHT22;24847;48.218;16.414;2022-08-21T03:11:36;18.20;99.90
39103;DHT22;24847;48.218;16.414;2022-08-21T03:16:39;18.30;99.90
39103;DHT22;24847;48.218;16.414;2022-08-21T03:21:42;17.90;99.90
39103;DHT22;24847;48.218;16.414;2022-08-21T03:26:46;18.20;99.90
39103;DHT22;24847;48.218;16.414;2022-08-21T03:31:48;18.20;99.90
39103;DHT22;24847;48.218;16.414;2022-08-21T03:36:51;18.20;99.90
39103;DHT22;24847;48.218;16.414;2022-08-21T03:41:55;18.10;99.90
39103;DHT22;24847;48.218;16.414;2022-08-21T03:46:57;18.20;99.90
39103;DHT22;24847;48.218;16.414;2022-08-21T03:52:00;18.30;99.90
39103;DHT22;24847;48.218;16.414;2022-08-21T03:57:04;18.30;99.90
39103;DHT22;24847;48.218;16.414;2022-08-21T04:02:07;18.40;99.90
39103;DHT22;24847;48.218;16.414;2022-08-21T04:07:09;18.20;99.90
39103;DHT22;24847;48.218;16.414;2022-08-21T04:12:12;18.10;99.90
39103;DHT22;24847;48.218;16.414;2022-08-21T04:17:15;18.20;99.90
39103;DHT22;24847;48.218;16.414;2022-08-21T04:22:17;18.30;99.90
39103;DHT22;24847;48.218;16.414;2022-08-21T04:27:21;18.20;99.90
39103;DHT22;24847;48.218;16.414;2022-08-21T04:32:23;18.20;99.90
39103;DHT22;24847;48.218;16.414;2022-08-21T04:37:26;18.30;99.90
39103;DHT22;24847;48.218;16.414;2022-08-21T04:42:30;18.30;99.90
39103;DHT22;24847;48.218;16.414;2022-08-21T04:47:33;18.40;99.90
39103;DHT22;24847;48.218;16.414;2022-08-21T04:52:35;18.50;99.90
39103;DHT22;24847;48.218;16.414;2022-08-21T04:57:40;18.30;99.90
39103;DHT22;24847;48.218;16.414;2022-08-21T05:02:43;18.20;99.90
39103;DHT22;24847;48.218;16.414;2022-08-21T05:07:48;18.30;99.90
39103;DHT22;24847;48.218;16.414;2022-08-21T05:12:52;18.40;99.90
39103;DHT22;24847;48.218;16.414;2022-08-21T05:17:55;18.40;99.90
39103;DHT22;24847;48.218;16.414;2022-08-21T05:22:57;18.70;99.90
39103;DHT22;24847;48.218;16.414;2022-08-21T05:28:01;18.70;99.90
39103;DHT22;24847;48.218;16.414;2022-08-21T05:33:05;18.90;99.90
39103;DHT22;24847;48.218;16.414;2022-08-21T05:38:08;18.90;99.90
39103;DHT22;24847;48.218;16.414;2022-08-21T05:43:13;18.90;99.90
39103;DHT22;24847;48.218;16.414;2022-08-21T05:48:18;18.80;99.90
39103;DHT22;24847;48.218;16.414;2022-08-21T05:53:22;18.90;99.90
39103;DHT22;24847;48.218;16.414;2022-08-21T05:58:27;19.20;99.90
39103;DHT22;24847;48.218;16.414;2022-08-21T06:03:35;19.30;99.90
39103;DHT22;24847;48.218;16.414;2022-08-21T06:08:38;19.00;99.90
39103;DHT22;24847;48.218;16.414;2022-08-21T06:13:41;19.20;99.90
39103;DHT22;24847;48.218;16.414;2022-08-21T06:18:45;19.10;99.90
39103;DHT22;24847;48.218;16.414;2022-08-21T06:23:47;19.00;99.90
39103;DHT22;24847;48.218;16.414;2022-08-21T06:28:50;19.30;99.90
39103;DHT22;24847;48.218;16.414;2022-08-21T06:33:53;19.00;99.90
39103;DHT22;24847;48.218;16.414;2022-08-21T06:38:55;19.10;99.90
39103;DHT22;24847;48.218;16.414;2022-08-21T06:43:59;19.40;99.90
39103;DHT22;24847;48.218;16.414;2022-08-21T06:49:01;19.60;99.90
39103;DHT22;24847;48.218;16.414;2022-08-21T06:54:03;19.50;99.90
39103;DHT22;24847;48.218;16.414;2022-08-21T06:59:07;19.50;99.90
39103;DHT22;24847;48.218;16.414;2022-08-21T07:04:10;19.50;99.90
39103;DHT22;24847;48.218;16.414;2022-08-21T07:09:12;19.40;99.90
39103;DHT22;24847;48.218;16.414;2022-08-21T07:14:16;19.10;99.90
39103;DHT22;24847;48.218;16.414;2022-08-21T07:19:18;19.10;99.90
39103;DHT22;24847;48.218;16.414;2022-08-21T07:24:21;19.20;99.90
39103;DHT22;24847;48.218;16.414;2022-08-21T07:29:24;19.20;99.90
39103;DHT22;24847;48.218;16.414;2022-08-21T07:34:27;19.10;99.90
39103;DHT22;24847;48.218;16.414;2022-08-21T07:39:29;19.10;99.90
39103;DHT22;24847;48.218;16.414;2022-08-21T07:44:33;19.30;99.90
39103;DHT22;24847;48.218;16.414;2022-08-21T07:49:35;19.30;99.90
39103;DHT22;24847;48.218;16.414;2022-08-21T07:54:38;19.30;99.90
39103;DHT22;24847;48.218;16.414;2022-08-21T07:59:41;19.00;99.90
39103;DHT22;24847;48.218;16.414;2022-08-21T08:04:43;19.20;99.90
39103;DHT22;24847;48.218;16.414;2022-08-21T08:09:46;19.60;99.90
39103;DHT22;24847;48.218;16.414;2022-08-21T08:14:50;19.70;99.90
39103;DHT22;24847;48.218;16.414;2022-08-21T08:19:52;20.50;99.90
39103;DHT22;24847;48.218;16.414;2022-08-21T08:24:55;19.60;99.90
39103;DHT22;24847;48.218;16.414;2022-08-21T08:29:59;19.70;99.90
39103;DHT22;24847;48.218;16.414;2022-08-21T08:35:02;19.60;99.90
39103;DHT22;24847;48.218;16.414;2022-08-21T08:40:07;19.60;99.90
39103;DHT22;24847;48.218;16.414;2022-08-21T08:45:18;19.50;99.90
39103;DHT22;24847;48.218;16.414;2022-08-21T08:50:26;19.60;99.90
39103;DHT22;24847;48.218;16.414;2022-08-21T08:55:35;19.60;99.90
39103;DHT22;24847;48.218;16.414;2022-08-21T09:00:40;19.70;99.90
39103;DHT22;24847;48.218;16.414;2022-08-21T09:05:45;19.70;99.90
39103;DHT22;24847;48.218;16.414;2022-08-21T09:10:59;20.20;99.90
39103;DHT22;24847;48.218;16.414;2022-08-21T09:16:11;20.10;99.90
39103;DHT22;24847;48.218;16.414;2022-08-21T09:21:26;20.20;99.90
39103;DHT22;24847;48.218;16.414;2022-08-21T09:26:39;20.10;99.90
39103;DHT22;24847;48.218;16.414;2022-08-21T09:31:48;19.70;99.90
39103;DHT22;24847;48.218;16.414;2022-08-21T09:36:50;19.10;99.90
39103;DHT22;24847;48.218;16.414;2022-08-21T09:41:58;19.40;99.90
39103;DHT22;24847;48.218;16.414;2022-08-21T09:47:03;19.70;99.90
39103;DHT22;24847;48.218;16.414;2022-08-21T09:52:16;19.70;99.90
39103;DHT22;24847;48.218;16.414;2022-08-21T09:57:24;20.20;99.90
39103;DHT22;24847;48.218;16.414;2022-08-21T10:02:41;20.20;99.90
39103;DHT22;24847;48.218;16.414;2022-08-21T10:07:43;20.20;99.90
39103;DHT22;24847;48.218;16.414;2022-08-21T10:12:53;20.50;99.90
39103;DHT22;24847;48.218;16.414;2022-08-21T10:18:04;20.00;99.90
39103;DHT22;24847;48.218;16.414;2022-08-21T10:23:23;19.90;99.90
39103;DHT22;24847;48.218;16.414;2022-08-21T10:28:35;20.10;99.90
39103;DHT22;24847;48.218;16.414;2022-08-21T10:33:49;19.80;99.90
39103;DHT22;24847;48.218;16.414;2022-08-21T10:39:13;19.70;99.90
39103;DHT22;24847;48.218;16.414;2022-08-21T10:44:28;19.60;99.90
39103;DHT22;24847;48.218;16.414;2022-08-21T10:49:40;19.50;99.90
39103;DHT22;24847;48.218;16.414;2022-08-21T10:54:51;19.60;99.90
39103;DHT22;24847;48.218;16.414;2022-08-21T10:59:57;19.40;99.90
39103;DHT22;24847;48.218;16.414;2022-08-21T11:05:10;19.30;99.90
39103;DHT22;24847;48.218;16.414;2022-08-21T11:10:19;19.30;99.90
39103;DHT22;24847;48.218;16.414;2022-08-21T11:15:31;19.20;99.90
39103;DHT22;24847;48.218;16.414;2022-08-21T11:20:43;19.70;99.90
39103;DHT22;24847;48.218;16.414;2022-08-21T11:25:52;19.70;99.90
39103;DHT22;24847;48.218;16.414;2022-08-21T11:31:04;20.10;99.90
39103;DHT22;24847;48.218;16.414;2022-08-21T11:36:21;20.40;99.90
39103;DHT22;24847;48.218;16.414;2022-08-21T11:41:30;20.50;99.90
39103;DHT22;24847;48.218;16.414;2022-08-21T11:46:43;20.60;99.90
39103;DHT22;24847;48.218;16.414;2022-08-21T11:51:53;20.00;99.90
39103;DHT22;24847;48.218;16.414;2022-08-21T11:57:02;20.20;99.90
39103;DHT22;24847;48.218;16.414;2022-08-21T12:02:12;20.10;99.90
39103;DHT22;24847;48.218;16.414;2022-08-21T12:07:30;20.00;99.90
39103;DHT22;24847;48.218;16.414;2022-08-21T12:12:37;20.20;99.90
39103;DHT22;24847;48.218;16.414;2022-08-21T12:17:52;20.30;99.90
39103;DHT22;24847;48.218;16.414;2022-08-21T12:23:05;20.30;99.90
39103;DHT22;24847;48.218;16.414;2022-08-21T12:28:22;20.30;99.90
39103;DHT22;24847;48.218;16.414;2022-08-21T12:33:28;20.40;99.90
39103;DHT22;24847;48.218;16.414;2022-08-21T12:38:44;20.20;99.90
39103;DHT22;24847;48.218;16.414;2022-08-21T12:43:53;20.00;99.90
39103;DHT22;24847;48.218;16.414;2022-08-21T12:49:03;19.90;99.90
39103;DHT22;24847;48.218;16.414;2022-08-21T12:54:22;19.70;99.90
39103;DHT22;24847;48.218;16.414;2022-08-21T12:59:26;19.60;99.90
39103;DHT22;24847;48.218;16.414;2022-08-21T13:04:35;19.60;99.90
39103;DHT22;24847;48.218;16.414;2022-08-21T13:09:44;19.50;99.90
39103;DHT22;24847;48.218;16.414;2022-08-21T13:14:50;19.30;99.90
39103;DHT22;24847;48.218;16.414;2022-08-21T13:19:55;19.40;99.90
39103;DHT22;24847;48.218;16.414;2022-08-21T13:25:01;19.30;99.90
39103;DHT22;24847;48.218;16.414;2022-08-21T13:30:07;19.30;99.90
39103;DHT22;24847;48.218;16.414;2022-08-21T13:35:17;19.40;99.90
39103;DHT22;24847;48.218;16.414;2022-08-21T13:40:25;19.50;99.90
39103;DHT22;24847;48.218;16.414;2022-08-21T13:45:32;19.60;99.90
39103;DHT22;24847;48.218;16.414;2022-08-21T13:50:36;19.90;99.90
39103;DHT22;24847;48.218;16.414;2022-08-21T13:55:43;20.10;99.90
39103;DHT22;24847;48.218;16.414;2022-08-21T14:00:47;20.20;99.90
39103;DHT22;24847;48.218;16.414;2022-08-21T14:05:50;20.30;99.90
39103;DHT22;24847;48.218;16.414;2022-08-21T14:10:54;20.20;99.90
39103;DHT22;24847;48.218;16.414;2022-08-21T14:15:58;20.20;99.90
39103;DHT22;24847;48.218;16.414;2022-08-21T14:21:06;20.30;99.90
39103;DHT22;24847;48.218;16.414;2022-08-21T14:26:11;20.50;99.90
39103;DHT22;24847;48.218;16.414;2022-08-21T14:31:16;20.50;99.90
39103;DHT22;24847;48.218;16.414;2022-08-21T14:36:20;20.50;99.90
39103;DHT22;24847;48.218;16.414;2022-08-21T14:41:25;20.60;99.90
39103;DHT22;24847;48.218;16.414;2022-08-21T14:46:30;20.40;99.90
39103;DHT22;24847;48.218;16.414;2022-08-21T14:51:35;20.10;99.90
39103;DHT22;24847;48.218;16.414;2022-08-21T14:56:40;20.30;99.90
39103;DHT22;24847;48.218;16.414;2022-08-21T15:01:42;20.30;99.90
39103;DHT22;24847;48.218;16.414;2022-08-21T15:06:45;20.30;99.90
39103;DHT22;24847;48.218;16.414;2022-08-21T15:11:49;20.20;99.90
39103;DHT22;24847;48.218;16.414;2022-08-21T15:16:53;20.10;99.90
39103;DHT22;24847;48.218;16.414;2022-08-21T15:21:55;20.10;99.90
39103;DHT22;24847;48.218;16.414;2022-08-21T15:27:01;20.20;99.90
39103;DHT22;24847;48.218;16.414;2022-08-21T15:32:17;20.10;99.90
39103;DHT22;24847;48.218;16.414;2022-08-21T15:37:22;20.40;99.90
39103;DHT22;24847;48.218;16.414;2022-08-21T15:42:27;20.30;99.90
39103;DHT22;24847;48.218;16.414;2022-08-21T15:47:31;20.30;99.90
39103;DHT22;24847;48.218;16.414;2022-08-21T15:52:35;20.20;99.90
39103;DHT22;24847;48.218;16.414;2022-08-21T15:57:43;20.30;99.90
39103;DHT22;24847;48.218;16.414;2022-08-21T16:02:50;20.30;99.90
39103;DHT22;24847;48.218;16.414;2022-08-21T16:07:55;20.30;99.90
39103;DHT22;24847;48.218;16.414;2022-08-21T16:13:05;20.30;99.90
39103;DHT22;24847;48.218;16.414;2022-08-21T16:18:17;20.30;99.90
39103;DHT22;24847;48.218;16.414;2022-08-21T16:23:20;20.30;99.90
39103;DHT22;24847;48.218;16.414;2022-08-21T16:28:23;20.20;99.90
39103;DHT22;24847;48.218;16.414;2022-08-21T16:33:31;20.20;99.90
39103;DHT22;24847;48.218;16.414;2022-08-21T16:38:35;20.10;99.90
39103;DHT22;24847;48.218;16.414;2022-08-21T16:43:40;20.10;99.90
39103;DHT22;24847;48.218;16.414;2022-08-21T16:48:43;20.10;99.90
39103;DHT22;24847;48.218;16.414;2022-08-21T16:53:45;20.10;99.90
39103;DHT22;24847;48.218;16.414;2022-08-21T16:58:50;20.10;99.90
39103;DHT22;24847;48.218;16.414;2022-08-21T17:03:52;20.20;99.90
39103;DHT22;24847;48.218;16.414;2022-08-21T17:08:55;20.20;99.90
39103;DHT22;24847;48.218;16.414;2022-08-21T17:14:03;20.30;99.90
39103;DHT22;24847;48.218;16.414;2022-08-21T17:19:07;20.10;99.90
39103;DHT22;24847;48.218;16.414;2022-08-21T17:24:09;20.00;99.90
39103;DHT22;24847;48.218;16.414;2022-08-21T17:29:18;20.00;99.90
39103;DHT22;24847;48.218;16.414;2022-08-21T17:34:21;20.00;99.90
39103;DHT22;24847;48.218;16.414;2022-08-21T17:39:24;20.00;99.90
39103;DHT22;24847;48.218;16.414;2022-08-21T17:44:28;20.00;99.90
39103;DHT22;24847;48.218;16.414;2022-08-21T17:49:30;20.10;99.90
39103;DHT22;24847;48.218;16.414;2022-08-21T18:07:37;20.10;99.90
39103;DHT22;24847;48.218;16.414;2022-08-21T18:12:40;20.10;99.90
39103;DHT22;24847;48.218;16.414;2022-08-21T18:17:48;19.90;99.90
39103;DHT22;24847;48.218;16.414;2022-08-21T18:22:51;20.00;99.90
39103;DHT22;24847;48.218;16.414;2022-08-21T18:27:54;20.00;99.90
39103;DHT22;24847;48.218;16.414;2022-08-21T18:32:57;20.00;99.90
39103;DHT22;24847;48.218;16.414;2022-08-21T18:37:59;20.00;99.90
39103;DHT22;24847;48.218;16.414;2022-08-21T18:43:14;20.00;99.90
39103;DHT22;24847;48.218;16.414;2022-08-21T18:48:27;19.90;99.90
39103;DHT22;24847;48.218;16.414;2022-08-21T18:53:32;19.90;99.90
39103;DHT22;24847;48.218;16.414;2022-08-21T18:58:39;19.80;99.90
39103;DHT22;24847;48.218;16.414;2022-08-21T19:03:49;19.80;99.90
39103;DHT22;24847;48.218;16.414;2022-08-21T19:09:16;19.80;99.90
39103;DHT22;24847;48.218;16.414;2022-08-21T19:14:30;19.80;99.90
39103;DHT22;24847;48.218;16.414;2022-08-21T19:19:37;19.80;99.90
39103;DHT22;24847;48.218;16.414;2022-08-21T19:24:46;19.80;99.90
39103;DHT22;24847;48.218;16.414;2022-08-21T19:29:51;19.80;99.90
39103;DHT22;24847;48.218;16.414;2022-08-21T19:34:58;19.70;99.90
39103;DHT22;24847;48.218;16.414;2022-08-21T19:40:01;19.80;99.90
39103;DHT22;24847;48.218;16.414;2022-08-21T19:45:05;19.70;99.90
39103;DHT22;24847;48.218;16.414;2022-08-21T19:50:10;19.90;99.90
39103;DHT22;24847;48.218;16.414;2022-08-21T19:55:13;19.90;99.90
39103;DHT22;24847;48.218;16.414;2022-08-21T20:00:16;19.80;99.90
39103;DHT22;24847;48.218;16.414;2022-08-21T20:05:20;19.80;99.90
39103;DHT22;24847;48.218;16.414;2022-08-21T20:10:22;19.40;99.90
39103;DHT22;24847;48.218;16.414;2022-08-21T20:15:24;19.30;99.90
39103;DHT22;24847;48.218;16.414;2022-08-21T20:20:28;19.10;99.90
39103;DHT22;24847;48.218;16.414;2022-08-21T20:25:33;18.90;99.90
39103;DHT22;24847;48.218;16.414;2022-08-21T20:30:36;18.90;99.90
39103;DHT22;24847;48.218;16.414;2022-08-21T20:35:40;18.90;99.90
39103;DHT22;24847;48.218;16.414;2022-08-21T20:40:48;18.90;99.90
39103;DHT22;24847;48.218;16.414;2022-08-21T20:45:52;18.70;99.90
39103;DHT22;24847;48.218;16.414;2022-08-21T20:51:01;18.70;99.90
39103;DHT22;24847;48.218;16.414;2022-08-21T20:56:06;18.20;99.90
39103;DHT22;24847;48.218;16.414;2022-08-21T21:01:11;18.20;99.90
39103;DHT22;24847;48.218;16.414;2022-08-21T21:06:18;18.30;99.90
39103;DHT22;24847;48.218;16.414;2022-08-21T21:11:26;17.90;99.90
39103;DHT22;24847;48.218;16.414;2022-08-21T21:16:38;18.10;99.90
39103;DHT22;24847;48.218;16.414;2022-08-21T21:21:47;18.00;99.90
39103;DHT22;24847;48.218;16.414;2022-08-21T21:26:57;18.00;99.90
39103;DHT22;24847;48.218;16.414;2022-08-21T21:32:02;17.90;99.90
39103;DHT22;24847;48.218;16.414;2022-08-21T21:37:09;17.60;99.90
39103;DHT22;24847;48.218;16.414;2022-08-21T21:42:23;17.40;99.90
39103;DHT22;24847;48.218;16.414;2022-08-21T21:47:39;17.30;99.90
39103;DHT22;24847;48.218;16.414;2022-08-21T21:52:59;17.30;99.90
39103;DHT22;24847;48.218;16.414;2022-08-21T21:58:29;17.20;99.90
39103;DHT22;24847;48.218;16.414;2022-08-21T22:03:47;17.20;99.90
39103;DHT22;24847;48.218;16.414;2022-08-21T22:09:02;17.00;99.90
39103;DHT22;24847;48.218;16.414;2022-08-21T22:14:11;16.90;99.90
39103;DHT22;24847;48.218;16.414;2022-08-21T22:19:19;16.80;99.90
39103;DHT22;24847;48.218;16.414;2022-08-21T22:24:27;16.70;99.90
39103;DHT22;24847;48.218;16.414;2022-08-21T22:29:47;16.80;99.90
39103;DHT22;24847;48.218;16.414;2022-08-21T22:35:03;17.00;99.90
39103;DHT22;24847;48.218;16.414;2022-08-21T22:40:11;16.90;99.90
39103;DHT22;24847;48.218;16.414;2022-08-21T22:45:19;16.90;99.90
39103;DHT22;24847;48.218;16.414;2022-08-21T22:50:28;16.90;99.90
39103;DHT22;24847;48.218;16.414;2022-08-21T22:55:39;16.90;99.90
39103;DHT22;24847;48.218;16.414;2022-08-21T23:00:49;16.90;99.90
39103;DHT22;24847;48.218;16.414;2022-08-21T23:05:54;17.10;99.90
39103;DHT22;24847;48.218;16.414;2022-08-21T23:11:01;17.00;99.90
39103;DHT22;24847;48.218;16.414;2022-08-21T23:16:08;17.00;99.90
39103;DHT22;24847;48.218;16.414;2022-08-21T23:21:29;17.00;99.90
39103;DHT22;24847;48.218;16.414;2022-08-21T23:26:46;17.00;99.90
39103;DHT22;24847;48.218;16.414;2022-08-21T23:31:59;16.60;99.90
39103;DHT22;24847;48.218;16.414;2022-08-21T23:37:16;16.70;99.90
39103;DHT22;24847;48.218;16.414;2022-08-21T23:42:51;16.50;99.90
39103;DHT22;24847;48.218;16.414;2022-08-21T23:48:12;16.70;99.90
39103;DHT22;24847;48.218;16.414;2022-08-21T23:53:27;16.60;99.90
39103;DHT22;24847;48.218;16.414;2022-08-21T23:58:45;16.60;99.90
